sensor_id;sensor_type;location;lat;lon;timestamp;pressure;altitude;pressure_sealevel;temperature;humidity
5284;BME280;15377;48.540;9.268;2024-03-02T00:02:12;96331.00;;;6.41;100.00
5284;BME280;15377;48.540;9.268;2024-03-02T00:04:38;96324.22;;;6.36;100.00
5284;BME280;15377;48.540;9.268;2024-03-02T00:07:04;96320.84;;;6.27;100.00
5284;BME280;15377;48.540;9.268;2024-03-02T00:09:29;96334.59;;;6.32;100.00
5284;BME280;15377;48.540;9.268;2024-03-02T00:11:55;96328.72;;;6.25;100.00
5284;BME280;15377;48.540;9.268;2024-03-02T00:14:20;96336.00;;;6.28;100.00
5284;BME280;15377;48.540;9.268;2024-03-02T00:16:46;96323.66;;;6.18;100.00
5284;BME280;15377;48.540;9.268;2024-03-02T00:19:11;96333.03;;;6.17;100.00
5284;BME280;15377;48.540;9.268;2024-03-02T00:21:37;96326.38;;;6.18;100.00
5284;BME280;15377;48.540;9.268;2024-03-02T00:24:20;96331.91;;;6.09;100.00
5284;BME280;15377;48.540;9.268;2024-03-02T00:26:47;96337.72;;;6.02;100.00
5284;BME280;15377;48.540;9.268;2024-03-02T00:29:15;96341.47;;;5.90;100.00
5284;BME280;15377;48.540;9.268;2024-03-02T00:31:41;96334.78;;;5.91;100.00
5284;BME280;15377;48.540;9.268;2024-03-02T00:34:07;96333.19;;;5.99;100.00
5284;BME280;15377;48.540;9.268;2024-03-02T00:36:33;96335.94;;;5.99;100.00
5284;BME280;15377;48.540;9.268;2024-03-02T00:38:58;96342.97;;;5.91;100.00
5284;BME280;15377;48.540;9.268;2024-03-02T00:41:24;96341.19;;;5.88;100.00
5284;BME280;15377;48.540;9.268;2024-03-02T00:46:21;96353.06;;;5.76;100.00
5284;BME280;15377;48.540;9.268;2024-03-02T00:48:55;96356.44;;;5.71;100.00
5284;BME280;15377;48.540;9.268;2024-03-02T00:51:22;96339.47;;;5.67;100.00
5284;BME280;15377;48.540;9.268;2024-03-02T00:53:49;96327.03;;;5.66;100.00
5284;BME280;15377;48.540;9.268;2024-03-02T00:56:14;96337.34;;;5.71;100.00
5284;BME280;15377;48.540;9.268;2024-03-02T00:58:40;96335.78;;;5.70;100.00
5284;BME280;15377;48.540;9.268;2024-03-02T01:01:05;96341.31;;;5.61;100.00
5284;BME280;15377;48.540;9.268;2024-03-02T01:03:32;96342.25;;;5.58;100.00
5284;BME280;15377;48.540;9.268;2024-03-02T01:05:58;96333.97;;;5.52;100.00
5284;BME280;15377;48.540;9.268;2024-03-02T01:08:24;96337.75;;;5.55;100.00
5284;BME280;15377;48.540;9.268;2024-03-02T01:10:49;96341.09;;;5.50;100.00
5284;BME280;15377;48.540;9.268;2024-03-02T01:13:15;96332.63;;;5.48;100.00
5284;BME280;15377;48.540;9.268;2024-03-02T01:15:40;96323.22;;;5.49;100.00
5284;BME280;15377;48.540;9.268;2024-03-02T01:18:05;96336.53;;;5.56;100.00
5284;BME280;15377;48.540;9.268;2024-03-02T01:20:31;96329.59;;;5.46;100.00
5284;BME280;15377;48.540;9.268;2024-03-02T01:22:56;96329.81;;;5.33;100.00
5284;BME280;15377;48.540;9.268;2024-03-02T01:25:22;96324.75;;;5.17;100.00
5284;BME280;15377;48.540;9.268;2024-03-02T01:27:47;96326.00;;;5.07;100.00
5284;BME280;15377;48.540;9.268;2024-03-02T01:30:12;96325.59;;;5.00;100.00
5284;BME280;15377;48.540;9.268;2024-03-02T01:32:38;96316.66;;;4.99;100.00
5284;BME280;15377;48.540;9.268;2024-03-02T01:35:05;96318.28;;;5.06;100.00
5284;BME280;15377;48.540;9.268;2024-03-02T01:37:30;96320.09;;;5.09;100.00
5284;BME280;15377;48.540;9.268;2024-03-02T01:39:55;96327.97;;;5.07;100.00
5284;BME280;15377;48.540;9.268;2024-03-02T01:42:21;96322.13;;;4.90;100.00
5284;BME280;15377;48.540;9.268;2024-03-02T01:44:47;96320.34;;;4.78;100.00
5284;BME280;15377;48.540;9.268;2024-03-02T01:47:13;96318.44;;;4.70;100.00
5284;BME280;15377;48.540;9.268;2024-03-02T01:49:38;96313.31;;;4.63;100.00
5284;BME280;15377;48.540;9.268;2024-03-02T01:52:04;96315.13;;;4.57;100.00
5284;BME280;15377;48.540;9.268;2024-03-02T01:54:29;96316.94;;;4.51;100.00
5284;BME280;15377;48.540;9.268;2024-03-02T01:56:55;96314.84;;;4.55;100.00
5284;BME280;15377;48.540;9.268;2024-03-02T01:59:21;96312.41;;;4.57;100.00
5284;BME280;15377;48.540;9.268;2024-03-02T02:01:46;96308.81;;;4.42;100.00
5284;BME280;15377;48.540;9.268;2024-03-02T02:04:11;96307.47;;;4.37;100.00
5284;BME280;15377;48.540;9.268;2024-03-02T02:06:38;96309.44;;;4.28;100.00
5284;BME280;15377;48.540;9.268;2024-03-02T02:09:04;96312.78;;;4.23;100.00
5284;BME280;15377;48.540;9.268;2024-03-02T02:11:29;96313.69;;;4.20;100.00
5284;BME280;15377;48.540;9.268;2024-03-02T02:13:54;96303.28;;;4.09;100.00
5284;BME280;15377;48.540;9.268;2024-03-02T02:16:20;96299.81;;;4.00;100.00
5284;BME280;15377;48.540;9.268;2024-03-02T02:18:46;96302.53;;;3.91;100.00
5284;BME280;15377;48.540;9.268;2024-03-02T02:21:12;96296.47;;;3.87;100.00
5284;BME280;15377;48.540;9.268;2024-03-02T02:23:37;96302.06;;;3.83;100.00
5284;BME280;15377;48.540;9.268;2024-03-02T02:26:03;96314.03;;;3.68;100.00
5284;BME280;15377;48.540;9.268;2024-03-02T02:28:29;96307.94;;;3.55;100.00
5284;BME280;15377;48.540;9.268;2024-03-02T02:30:54;96299.78;;;3.55;100.00
5284;BME280;15377;48.540;9.268;2024-03-02T02:33:21;96299.78;;;3.55;100.00
5284;BME280;15377;48.540;9.268;2024-03-02T02:35:47;96312.81;;;3.60;100.00
5284;BME280;15377;48.540;9.268;2024-03-02T02:38:12;96301.31;;;3.65;100.00
5284;BME280;15377;48.540;9.268;2024-03-02T02:40:37;96306.16;;;3.70;100.00
5284;BME280;15377;48.540;9.268;2024-03-02T02:43:03;96304.03;;;3.56;100.00
5284;BME280;15377;48.540;9.268;2024-03-02T02:45:28;96299.16;;;3.42;100.00
5284;BME280;15377;48.540;9.268;2024-03-02T02:47:54;96299.16;;;3.33;100.00
5284;BME280;15377;48.540;9.268;2024-03-02T02:50:19;96297.94;;;3.34;100.00
5284;BME280;15377;48.540;9.268;2024-03-02T02:52:45;96280.13;;;3.33;100.00
5284;BME280;15377;48.540;9.268;2024-03-02T02:55:12;96292.84;;;3.36;100.00
5284;BME280;15377;48.540;9.268;2024-03-02T02:57:39;96291.63;;;3.37;100.00
5284;BME280;15377;48.540;9.268;2024-03-02T03:00:11;96295.50;;;3.18;100.00
5284;BME280;15377;48.540;9.268;2024-03-02T03:02:44;96287.66;;;3.20;100.00
5284;BME280;15377;48.540;9.268;2024-03-02T03:05:10;96288.56;;;3.26;100.00
5284;BME280;15377;48.540;9.268;2024-03-02T03:07:37;96284.19;;;3.20;100.00
5284;BME280;15377;48.540;9.268;2024-03-02T03:10:04;96279.16;;;3.09;100.00
5284;BME280;15377;48.540;9.268;2024-03-02T03:12:30;96286.56;;;3.00;100.00
5284;BME280;15377;48.540;9.268;2024-03-02T03:14:56;96289.16;;;3.03;100.00
5284;BME280;15377;48.540;9.268;2024-03-02T03:17:22;96291.25;;;3.08;100.00
5284;BME280;15377;48.540;9.268;2024-03-02T03:19:48;96289.16;;;3.12;100.00
5284;BME280;15377;48.540;9.268;2024-03-02T03:22:13;96283.09;;;3.08;100.00
5284;BME280;15377;48.540;9.268;2024-03-02T03:24:39;96295.00;;;2.93;100.00
5284;BME280;15377;48.540;9.268;2024-03-02T03:27:04;96293.25;;;2.77;100.00
5284;BME280;15377;48.540;9.268;2024-03-02T03:29:29;96294.91;;;2.75;100.00
5284;BME280;15377;48.540;9.268;2024-03-02T03:31:55;96295.69;;;2.75;100.00
5284;BME280;15377;48.540;9.268;2024-03-02T03:34:20;96304.09;;;2.68;100.00
5284;BME280;15377;48.540;9.268;2024-03-02T03:36:45;96295.38;;;2.73;100.00
5284;BME280;15377;48.540;9.268;2024-03-02T03:39:11;96293.91;;;2.81;100.00
5284;BME280;15377;48.540;9.268;2024-03-02T03:41:36;96296.91;;;2.83;100.00
5284;BME280;15377;48.540;9.268;2024-03-02T03:44:02;96296.88;;;2.74;100.00
5284;BME280;15377;48.540;9.268;2024-03-02T03:46:28;96295.75;;;2.54;100.00
5284;BME280;15377;48.540;9.268;2024-03-02T03:48:54;96294.59;;;2.33;100.00
5284;BME280;15377;48.540;9.268;2024-03-02T03:51:21;96295.97;;;2.16;100.00
5284;BME280;15377;48.540;9.268;2024-03-02T03:53:48;96294.41;;;2.06;100.00
5284;BME280;15377;48.540;9.268;2024-03-02T03:56:13;96293.28;;;1.95;100.00
5284;BME280;15377;48.540;9.268;2024-03-02T03:58:39;96293.94;;;2.29;100.00
5284;BME280;15377;48.540;9.268;2024-03-02T04:01:04;96289.16;;;2.33;100.00
5284;BME280;15377;48.540;9.268;2024-03-02T04:03:29;96289.47;;;2.35;100.00
5284;BME280;15377;48.540;9.268;2024-03-02T04:05:55;96292.78;;;2.39;100.00
5284;BME280;15377;48.540;9.268;2024-03-02T04:08:21;96292.16;;;2.66;100.00
5284;BME280;15377;48.540;9.268;2024-03-02T04:10:46;96285.72;;;2.72;100.00
5284;BME280;15377;48.540;9.268;2024-03-02T04:13:12;96292.06;;;2.78;100.00
5284;BME280;15377;48.540;9.268;2024-03-02T04:15:37;96289.47;;;2.75;100.00
5284;BME280;15377;48.540;9.268;2024-03-02T04:18:03;96286.31;;;2.76;100.00
5284;BME280;15377;48.540;9.268;2024-03-02T04:20:28;96284.47;;;2.64;100.00
5284;BME280;15377;48.540;9.268;2024-03-02T04:22:54;96291.06;;;2.54;100.00
5284;BME280;15377;48.540;9.268;2024-03-02T04:25:20;96286.53;;;2.51;100.00
5284;BME280;15377;48.540;9.268;2024-03-02T04:27:45;96289.41;;;2.26;100.00
5284;BME280;15377;48.540;9.268;2024-03-02T04:30:11;96287.31;;;2.30;100.00
5284;BME280;15377;48.540;9.268;2024-03-02T04:32:36;96298.16;;;2.30;100.00
5284;BME280;15377;48.540;9.268;2024-03-02T04:35:02;96293.91;;;2.20;100.00
5284;BME280;15377;48.540;9.268;2024-03-02T04:37:27;96296.81;;;2.04;100.00
5284;BME280;15377;48.540;9.268;2024-03-02T04:39:52;96304.38;;;2.09;100.00
5284;BME280;15377;48.540;9.268;2024-03-02T04:42:18;96306.34;;;2.09;100.00
5284;BME280;15377;48.540;9.268;2024-03-02T04:44:43;96302.22;;;2.04;100.00
5284;BME280;15377;48.540;9.268;2024-03-02T04:47:08;96308.91;;;2.12;100.00
5284;BME280;15377;48.540;9.268;2024-03-02T04:49:34;96303.25;;;2.19;100.00
5284;BME280;15377;48.540;9.268;2024-03-02T04:51:59;96295.66;;;2.14;100.00
5284;BME280;15377;48.540;9.268;2024-03-02T04:54:24;96309.88;;;1.97;100.00
5284;BME280;15377;48.540;9.268;2024-03-02T04:56:50;96307.28;;;1.93;100.00
5284;BME280;15377;48.540;9.268;2024-03-02T04:59:16;96298.44;;;1.80;100.00
5284;BME280;15377;48.540;9.268;2024-03-02T05:01:42;96302.22;;;1.61;100.00
5284;BME280;15377;48.540;9.268;2024-03-02T05:04:08;96308.50;;;1.58;100.00
5284;BME280;15377;48.540;9.268;2024-03-02T05:06:33;96294.88;;;1.49;100.00
5284;BME280;15377;48.540;9.268;2024-03-02T05:08:59;96296.81;;;1.61;100.00
5284;BME280;15377;48.540;9.268;2024-03-02T05:11:24;96299.16;;;1.59;100.00
5284;BME280;15377;48.540;9.268;2024-03-02T05:14:07;96303.84;;;1.59;100.00
5284;BME280;15377;48.540;9.268;2024-03-02T05:16:36;96304.16;;;1.61;100.00
5284;BME280;15377;48.540;9.268;2024-03-02T05:19:05;96312.97;;;1.52;100.00
5284;BME280;15377;48.540;9.268;2024-03-02T05:21:34;96306.09;;;1.60;100.00
5284;BME280;15377;48.540;9.268;2024-03-02T05:23:59;96305.38;;;1.60;100.00
5284;BME280;15377;48.540;9.268;2024-03-02T05:26:25;96309.16;;;1.62;100.00
5284;BME280;15377;48.540;9.268;2024-03-02T05:28:50;96309.91;;;1.63;100.00
5284;BME280;15377;48.540;9.268;2024-03-02T05:31:16;96304.22;;;1.70;100.00
5284;BME280;15377;48.540;9.268;2024-03-02T05:33:42;96301.72;;;1.75;100.00
5284;BME280;15377;48.540;9.268;2024-03-02T05:36:07;96308.41;;;1.83;100.00
5284;BME280;15377;48.540;9.268;2024-03-02T05:38:36;96304.69;;;1.90;100.00
5284;BME280;15377;48.540;9.268;2024-03-02T05:41:01;96305.63;;;1.96;100.00
5284;BME280;15377;48.540;9.268;2024-03-02T05:43:27;96321.03;;;1.99;100.00
5284;BME280;15377;48.540;9.268;2024-03-02T05:45:52;96311.44;;;1.85;100.00
5284;BME280;15377;48.540;9.268;2024-03-02T05:48:17;96310.63;;;1.97;100.00
5284;BME280;15377;48.540;9.268;2024-03-02T05:50:43;96307.66;;;2.04;100.00
5284;BME280;15377;48.540;9.268;2024-03-02T05:53:08;96314.28;;;2.03;100.00
5284;BME280;15377;48.540;9.268;2024-03-02T05:55:33;96308.69;;;1.98;100.00
5284;BME280;15377;48.540;9.268;2024-03-02T05:57:59;96304.75;;;1.77;100.00
5284;BME280;15377;48.540;9.268;2024-03-02T06:00:42;96312.28;;;1.61;100.00
5284;BME280;15377;48.540;9.268;2024-03-02T06:03:08;96311.22;;;1.58;100.00
5284;BME280;15377;48.540;9.268;2024-03-02T06:05:34;96313.69;;;1.65;100.00
5284;BME280;15377;48.540;9.268;2024-03-02T06:08:00;96317.34;;;1.71;100.00
5284;BME280;15377;48.540;9.268;2024-03-02T06:10:25;96305.06;;;1.79;100.00
5284;BME280;15377;48.540;9.268;2024-03-02T06:12:51;96312.59;;;1.97;100.00
5284;BME280;15377;48.540;9.268;2024-03-02T06:15:16;96316.88;;;2.07;100.00
5284;BME280;15377;48.540;9.268;2024-03-02T06:17:42;96324.56;;;2.08;100.00
5284;BME280;15377;48.540;9.268;2024-03-02T06:20:08;96321.94;;;2.17;100.00
5284;BME280;15377;48.540;9.268;2024-03-02T06:22:33;96319.25;;;2.26;100.00
5284;BME280;15377;48.540;9.268;2024-03-02T06:25:00;96326.31;;;2.45;100.00
5284;BME280;15377;48.540;9.268;2024-03-02T06:27:25;96317.31;;;2.57;100.00
5284;BME280;15377;48.540;9.268;2024-03-02T06:29:50;96334.78;;;2.78;100.00
5284;BME280;15377;48.540;9.268;2024-03-02T06:32:16;96328.56;;;2.77;100.00
5284;BME280;15377;48.540;9.268;2024-03-02T06:34:42;96333.56;;;2.79;100.00
5284;BME280;15377;48.540;9.268;2024-03-02T06:37:07;96338.88;;;2.82;100.00
5284;BME280;15377;48.540;9.268;2024-03-02T06:39:33;96351.09;;;2.87;100.00
5284;BME280;15377;48.540;9.268;2024-03-02T06:41:59;96354.91;;;2.89;100.00
5284;BME280;15377;48.540;9.268;2024-03-02T06:44:25;96346.91;;;2.95;100.00
5284;BME280;15377;48.540;9.268;2024-03-02T06:46:50;96347.09;;;3.09;100.00
5284;BME280;15377;48.540;9.268;2024-03-02T06:49:15;96349.13;;;3.27;100.00
5284;BME280;15377;48.540;9.268;2024-03-02T06:51:43;96352.00;;;3.23;100.00
5284;BME280;15377;48.540;9.268;2024-03-02T06:54:09;96349.84;;;3.18;100.00
5284;BME280;15377;48.540;9.268;2024-03-02T06:56:34;96356.09;;;3.28;100.00
5284;BME280;15377;48.540;9.268;2024-03-02T06:59:00;96359.09;;;3.30;100.00
5284;BME280;15377;48.540;9.268;2024-03-02T07:01:25;96352.22;;;3.47;100.00
5284;BME280;15377;48.540;9.268;2024-03-02T07:03:51;96353.91;;;3.71;100.00
5284;BME280;15377;48.540;9.268;2024-03-02T07:06:17;96344.88;;;3.83;100.00
5284;BME280;15377;48.540;9.268;2024-03-02T07:08:42;96349.22;;;4.07;100.00
5284;BME280;15377;48.540;9.268;2024-03-02T07:11:07;96355.13;;;4.24;100.00
5284;BME280;15377;48.540;9.268;2024-03-02T07:13:33;96343.63;;;4.38;100.00
5284;BME280;15377;48.540;9.268;2024-03-02T07:15:58;96346.31;;;4.56;100.00
5284;BME280;15377;48.540;9.268;2024-03-02T07:18:30;96345.66;;;4.79;100.00
5284;BME280;15377;48.540;9.268;2024-03-02T07:20:56;96344.69;;;4.91;100.00
5284;BME280;15377;48.540;9.268;2024-03-02T07:23:24;96346.88;;;5.10;100.00
5284;BME280;15377;48.540;9.268;2024-03-02T07:25:55;96349.16;;;5.44;100.00
5284;BME280;15377;48.540;9.268;2024-03-02T07:28:22;96349.81;;;5.63;100.00
5284;BME280;15377;48.540;9.268;2024-03-02T07:31:00;96345.91;;;5.78;100.00
5284;BME280;15377;48.540;9.268;2024-03-02T07:33:26;96345.06;;;5.96;100.00
5284;BME280;15377;48.540;9.268;2024-03-02T07:35:51;96348.28;;;6.09;100.00
5284;BME280;15377;48.540;9.268;2024-03-02T07:38:17;96355.41;;;6.30;100.00
5284;BME280;15377;48.540;9.268;2024-03-02T07:40:42;96345.16;;;6.39;100.00
5284;BME280;15377;48.540;9.268;2024-03-02T07:43:08;96351.00;;;6.47;100.00
5284;BME280;15377;48.540;9.268;2024-03-02T07:45:34;96358.53;;;6.52;100.00
5284;BME280;15377;48.540;9.268;2024-03-02T07:48:01;96355.34;;;6.53;100.00
5284;BME280;15377;48.540;9.268;2024-03-02T07:50:28;96352.13;;;6.55;100.00
5284;BME280;15377;48.540;9.268;2024-03-02T07:52:54;96353.81;;;6.52;100.00
5284;BME280;15377;48.540;9.268;2024-03-02T07:55:19;96359.69;;;6.60;100.00
5284;BME280;15377;48.540;9.268;2024-03-02T07:57:44;96350.25;;;6.61;100.00
5284;BME280;15377;48.540;9.268;2024-03-02T08:00:10;96347.34;;;6.64;100.00
5284;BME280;15377;48.540;9.268;2024-03-02T08:02:35;96346.09;;;6.65;100.00
5284;BME280;15377;48.540;9.268;2024-03-02T08:05:01;96344.03;;;6.75;100.00
5284;BME280;15377;48.540;9.268;2024-03-02T08:07:26;96350.38;;;6.81;100.00
5284;BME280;15377;48.540;9.268;2024-03-02T08:09:52;96340.09;;;6.76;100.00
5284;BME280;15377;48.540;9.268;2024-03-02T08:12:17;96344.13;;;6.80;100.00
5284;BME280;15377;48.540;9.268;2024-03-02T08:14:44;96343.84;;;6.78;100.00
5284;BME280;15377;48.540;9.268;2024-03-02T08:17:10;96341.59;;;6.77;100.00
5284;BME280;15377;48.540;9.268;2024-03-02T08:19:37;96343.66;;;6.82;100.00
5284;BME280;15377;48.540;9.268;2024-03-02T08:22:03;96342.81;;;6.90;100.00
5284;BME280;15377;48.540;9.268;2024-03-02T08:24:28;96329.59;;;7.03;100.00
5284;BME280;15377;48.540;9.268;2024-03-02T08:26:54;96326.19;;;7.08;100.00
5284;BME280;15377;48.540;9.268;2024-03-02T08:29:19;96319.84;;;7.16;100.00
5284;BME280;15377;48.540;9.268;2024-03-02T08:31:44;96327.00;;;7.28;100.00
5284;BME280;15377;48.540;9.268;2024-03-02T08:34:10;96323.19;;;7.40;100.00
5284;BME280;15377;48.540;9.268;2024-03-02T08:36:35;96324.16;;;7.57;100.00
5284;BME280;15377;48.540;9.268;2024-03-02T08:39:01;96324.44;;;7.79;100.00
5284;BME280;15377;48.540;9.268;2024-03-02T08:41:27;96305.56;;;8.01;100.00
5284;BME280;15377;48.540;9.268;2024-03-02T08:43:52;96312.59;;;8.28;100.00
5284;BME280;15377;48.540;9.268;2024-03-02T08:46:18;96313.16;;;8.57;100.00
5284;BME280;15377;48.540;9.268;2024-03-02T08:48:43;96320.81;;;8.79;100.00
5284;BME280;15377;48.540;9.268;2024-03-02T08:51:09;96319.03;;;9.01;100.00
5284;BME280;15377;48.540;9.268;2024-03-02T08:53:36;96327.16;;;9.21;100.00
5284;BME280;15377;48.540;9.268;2024-03-02T08:56:01;96321.03;;;9.43;100.00
5284;BME280;15377;48.540;9.268;2024-03-02T08:58:27;96322.44;;;9.64;100.00
5284;BME280;15377;48.540;9.268;2024-03-02T09:00:52;96322.56;;;9.91;100.00
5284;BME280;15377;48.540;9.268;2024-03-02T09:03:17;96337.59;;;10.01;100.00
5284;BME280;15377;48.540;9.268;2024-03-02T09:05:43;96337.72;;;10.23;100.00
5284;BME280;15377;48.540;9.268;2024-03-02T09:08:08;96343.78;;;10.49;100.00
5284;BME280;15377;48.540;9.268;2024-03-02T09:10:34;96343.88;;;10.82;100.00
5284;BME280;15377;48.540;9.268;2024-03-02T09:13:00;96341.66;;;11.57;100.00
5284;BME280;15377;48.540;9.268;2024-03-02T09:15:25;96335.59;;;13.24;100.00
5284;BME280;15377;48.540;9.268;2024-03-02T09:17:50;96341.56;;;15.03;100.00
5284;BME280;15377;48.540;9.268;2024-03-02T09:20:16;96346.53;;;16.51;100.00
5284;BME280;15377;48.540;9.268;2024-03-02T09:22:41;96341.44;;;17.63;100.00
5284;BME280;15377;48.540;9.268;2024-03-02T09:25:07;96341.66;;;18.42;87.06
5284;BME280;15377;48.540;9.268;2024-03-02T09:27:36;96336.00;;;19.12;70.00
5284;BME280;15377;48.540;9.268;2024-03-02T09:30:02;96322.31;;;19.52;67.94
5284;BME280;15377;48.540;9.268;2024-03-02T09:32:27;96331.84;;;20.71;64.14
5284;BME280;15377;48.540;9.268;2024-03-02T09:34:53;96325.34;;;21.72;61.04
5284;BME280;15377;48.540;9.268;2024-03-02T09:37:18;96324.81;;;22.66;56.27
5284;BME280;15377;48.540;9.268;2024-03-02T09:39:44;96319.22;;;23.88;50.70
5284;BME280;15377;48.540;9.268;2024-03-02T09:42:11;96316.66;;;24.28;44.07
5284;BME280;15377;48.540;9.268;2024-03-02T09:44:37;96311.94;;;24.50;43.42
5284;BME280;15377;48.540;9.268;2024-03-02T09:47:04;96298.78;;;24.52;42.19
5284;BME280;15377;48.540;9.268;2024-03-02T09:49:29;96301.84;;;25.32;43.79
5284;BME280;15377;48.540;9.268;2024-03-02T09:51:54;96302.00;;;25.15;44.22
5284;BME280;15377;48.540;9.268;2024-03-02T09:54:20;96293.56;;;24.30;43.31
5284;BME280;15377;48.540;9.268;2024-03-02T09:56:46;96291.63;;;24.32;44.76
5284;BME280;15377;48.540;9.268;2024-03-02T09:59:11;96288.41;;;24.83;42.30
5284;BME280;15377;48.540;9.268;2024-03-02T10:01:38;96291.38;;;24.85;41.07
5284;BME280;15377;48.540;9.268;2024-03-02T10:04:05;96287.22;;;24.86;41.68
5284;BME280;15377;48.540;9.268;2024-03-02T10:06:30;96280.72;;;24.74;40.41
5284;BME280;15377;48.540;9.268;2024-03-02T10:08:56;96269.22;;;25.20;40.11
5284;BME280;15377;48.540;9.268;2024-03-02T10:14:07;96284.84;;;25.91;38.97
5284;BME280;15377;48.540;9.268;2024-03-02T10:16:34;96277.63;;;26.51;40.00
5284;BME280;15377;48.540;9.268;2024-03-02T10:19:21;96275.88;;;26.04;38.49
5284;BME280;15377;48.540;9.268;2024-03-02T10:21:48;96267.28;;;26.98;38.77
5284;BME280;15377;48.540;9.268;2024-03-02T10:24:15;96276.00;;;26.06;38.93
5284;BME280;15377;48.540;9.268;2024-03-02T10:26:40;96276.56;;;25.93;39.19
5284;BME280;15377;48.540;9.268;2024-03-02T10:29:08;96278.38;;;25.79;39.38
5284;BME280;15377;48.540;9.268;2024-03-02T10:31:33;96281.72;;;25.97;38.56
5284;BME280;15377;48.540;9.268;2024-03-02T10:33:59;96272.63;;;25.68;39.13
5284;BME280;15377;48.540;9.268;2024-03-02T10:36:25;96269.47;;;24.74;40.29
5284;BME280;15377;48.540;9.268;2024-03-02T10:38:51;96258.38;;;22.42;44.53
5284;BME280;15377;48.540;9.268;2024-03-02T10:41:23;96259.38;;;21.54;47.53
5284;BME280;15377;48.540;9.268;2024-03-02T10:43:51;96252.63;;;20.29;51.90
5284;BME280;15377;48.540;9.268;2024-03-02T10:46:19;96252.81;;;18.81;60.52
5284;BME280;15377;48.540;9.268;2024-03-02T10:48:45;96256.34;;;17.68;72.04
5284;BME280;15377;48.540;9.268;2024-03-02T10:51:11;96250.63;;;16.84;81.06
5284;BME280;15377;48.540;9.268;2024-03-02T10:53:37;96247.34;;;16.26;84.47
5284;BME280;15377;48.540;9.268;2024-03-02T10:56:04;96254.75;;;15.71;86.01
5284;BME280;15377;48.540;9.268;2024-03-02T10:58:33;96239.38;;;15.31;93.36
5284;BME280;15377;48.540;9.268;2024-03-02T11:01:02;96233.88;;;15.13;99.54
5284;BME280;15377;48.540;9.268;2024-03-02T11:03:31;96230.75;;;15.03;100.00
5284;BME280;15377;48.540;9.268;2024-03-02T11:05:59;96224.25;;;14.70;100.00
5284;BME280;15377;48.540;9.268;2024-03-02T11:08:26;96229.34;;;14.47;100.00
5284;BME280;15377;48.540;9.268;2024-03-02T11:11:06;96226.38;;;14.27;100.00
5284;BME280;15377;48.540;9.268;2024-03-02T11:13:33;96224.25;;;14.14;100.00
5284;BME280;15377;48.540;9.268;2024-03-02T11:16:04;96214.66;;;14.21;100.00
5284;BME280;15377;48.540;9.268;2024-03-02T11:18:31;96216.94;;;14.17;100.00
5284;BME280;15377;48.540;9.268;2024-03-02T11:20:58;96212.41;;;14.19;100.00
5284;BME280;15377;48.540;9.268;2024-03-02T11:23:34;96203.50;;;14.26;100.00
5284;BME280;15377;48.540;9.268;2024-03-02T11:26:21;96209.47;;;14.30;100.00
5284;BME280;15377;48.540;9.268;2024-03-02T11:28:48;96202.13;;;14.14;100.00
5284;BME280;15377;48.540;9.268;2024-03-02T11:31:14;96182.72;;;14.20;100.00
5284;BME280;15377;48.540;9.268;2024-03-02T11:33:39;96195.41;;;14.47;100.00
5284;BME280;15377;48.540;9.268;2024-03-02T11:36:08;96193.84;;;14.51;99.20
5284;BME280;15377;48.540;9.268;2024-03-02T11:38:34;96192.47;;;14.58;99.19
5284;BME280;15377;48.540;9.268;2024-03-02T11:41:02;96187.59;;;14.64;97.94
5284;BME280;15377;48.540;9.268;2024-03-02T11:43:28;96188.03;;;14.68;97.03
5284;BME280;15377;48.540;9.268;2024-03-02T11:46:00;96184.00;;;14.69;94.11
5284;BME280;15377;48.540;9.268;2024-03-02T11:48:26;96179.34;;;14.77;94.99
5284;BME280;15377;48.540;9.268;2024-03-02T11:50:52;96166.25;;;14.90;95.76
5284;BME280;15377;48.540;9.268;2024-03-02T11:53:19;96160.41;;;14.93;91.41
5284;BME280;15377;48.540;9.268;2024-03-02T11:55:45;96156.34;;;14.94;91.28
5284;BME280;15377;48.540;9.268;2024-03-02T11:58:12;96157.84;;;14.95;91.56
5284;BME280;15377;48.540;9.268;2024-03-02T12:00:38;96146.25;;;15.10;89.80
5284;BME280;15377;48.540;9.268;2024-03-02T12:03:06;96149.03;;;15.23;90.29
5284;BME280;15377;48.540;9.268;2024-03-02T12:05:32;96147.09;;;15.18;86.71
5284;BME280;15377;48.540;9.268;2024-03-02T12:07:59;96146.81;;;15.34;88.91
5284;BME280;15377;48.540;9.268;2024-03-02T12:10:25;96142.78;;;15.48;87.47
5284;BME280;15377;48.540;9.268;2024-03-02T12:13:05;96132.97;;;15.47;86.03
5284;BME280;15377;48.540;9.268;2024-03-02T12:15:37;96134.03;;;15.57;85.91
5284;BME280;15377;48.540;9.268;2024-03-02T12:18:03;96133.25;;;15.70;86.33
5284;BME280;15377;48.540;9.268;2024-03-02T12:20:31;96127.19;;;15.71;82.88
5284;BME280;15377;48.540;9.268;2024-03-02T12:23:01;96130.59;;;15.77;87.03
5284;BME280;15377;48.540;9.268;2024-03-02T12:25:27;96124.84;;;15.62;83.69
5284;BME280;15377;48.540;9.268;2024-03-02T12:27:57;96131.69;;;15.48;80.30
5284;BME280;15377;48.540;9.268;2024-03-02T12:30:23;96127.31;;;15.27;80.64
5284;BME280;15377;48.540;9.268;2024-03-02T12:32:49;96123.56;;;15.37;81.98
5284;BME280;15377;48.540;9.268;2024-03-02T12:35:15;96120.91;;;15.19;82.23
5284;BME280;15377;48.540;9.268;2024-03-02T12:37:51;96112.91;;;15.15;82.66
5284;BME280;15377;48.540;9.268;2024-03-02T12:40:18;96112.47;;;15.24;82.07
5284;BME280;15377;48.540;9.268;2024-03-02T12:42:45;96109.31;;;15.33;84.40
5284;BME280;15377;48.540;9.268;2024-03-02T12:45:11;96108.09;;;15.29;81.70
5284;BME280;15377;48.540;9.268;2024-03-02T12:47:39;96103.44;;;15.37;80.96
5284;BME280;15377;48.540;9.268;2024-03-02T12:50:06;96097.75;;;15.29;80.30
5284;BME280;15377;48.540;9.268;2024-03-02T12:52:32;96105.44;;;15.23;80.20
5284;BME280;15377;48.540;9.268;2024-03-02T12:54:59;96099.13;;;15.10;80.88
5284;BME280;15377;48.540;9.268;2024-03-02T12:57:25;96099.78;;;14.90;80.46
5284;BME280;15377;48.540;9.268;2024-03-02T12:59:52;96090.94;;;14.91;82.61
5284;BME280;15377;48.540;9.268;2024-03-02T13:02:18;96102.44;;;14.95;86.23
5284;BME280;15377;48.540;9.268;2024-03-02T13:04:43;96092.44;;;14.92;82.27
5284;BME280;15377;48.540;9.268;2024-03-02T13:07:10;96089.66;;;15.05;82.74
5284;BME280;15377;48.540;9.268;2024-03-02T13:09:39;96091.69;;;15.05;81.79
5284;BME280;15377;48.540;9.268;2024-03-02T13:12:04;96079.88;;;14.91;79.23